createdAt,value
2018-04-18T00:00:28.039Z,0.00
2018-04-18T00:01:28.021Z,0.00
2018-04-18T00:02:28.013Z,0.00
2018-04-18T00:03:27.989Z,0.00
2018-04-18T00:04:27.969Z,0.00
2018-04-18T00:05:27.956Z,0.00
2018-04-18T00:06:27.938Z,0.00
2018-04-18T00:07:27.936Z,0.00
2018-04-18T00:08:27.911Z,0.00
2018-04-18T00:09:27.889Z,0.00
2018-04-18T00:10:27.881Z,0.00
2018-04-18T00:11:27.870Z,0.00
2018-04-18T00:12:27.839Z,0.00
2018-04-18T00:13:27.827Z,0.00
2018-04-18T00:14:27.816Z,0.00
2018-04-18T00:15:27.792Z,0.00
2018-04-18T00:16:27.778Z,0.00
2018-04-18T00:17:27.757Z,0.00
2018-04-18T00:18:27.744Z,0.00
2018-04-18T00:19:27.729Z,0.00
2018-04-18T00:20:27.709Z,0.00
2018-04-18T00:21:27.698Z,0.00
2018-04-18T00:22:27.679Z,0.00
2018-04-18T00:23:27.668Z,0.00
2018-04-18T00:24:27.642Z,0.00
2018-04-18T00:25:27.627Z,0.00
2018-04-18T00:26:27.609Z,0.00
2018-04-18T00:27:27.598Z,0.00
2018-04-18T00:28:27.580Z,0.00
2018-04-18T00:29:27.563Z,0.00
2018-04-18T00:30:27.548Z,0.00
2018-04-18T00:31:27.529Z,0.00
2018-04-18T00:32:27.516Z,0.00
2018-04-18T00:33:27.499Z,0.00
2018-04-18T00:34:27.481Z,0.00
2018-04-18T00:35:27.469Z,0.00
2018-04-18T00:36:27.449Z,0.00
2018-04-18T00:37:27.430Z,0.00
2018-04-18T00:38:27.414Z,0.00
2018-04-18T00:39:27.402Z,0.00
2018-04-18T00:40:27.379Z,0.00
2018-04-18T00:41:27.368Z,0.00
2018-04-18T00:42:27.348Z,0.00
2018-04-18T00:43:27.329Z,0.00
2018-04-18T00:44:27.312Z,0.00
2018-04-18T00:45:27.296Z,0.00
2018-04-18T00:46:27.279Z,0.00
2018-04-18T00:47:27.268Z,0.00
2018-04-18T00:48:27.256Z,0.00
2018-04-18T00:49:27.233Z,0.00
2018-04-18T00:50:27.212Z,0.00
2018-04-18T00:51:27.198Z,0.00
2018-04-18T00:52:27.180Z,0.00
2018-04-18T00:53:27.174Z,0.00
2018-04-18T00:54:27.150Z,0.00
2018-04-18T00:55:27.140Z,0.00
2018-04-18T00:56:27.115Z,0.00
2018-04-18T00:57:27.101Z,0.00
2018-04-18T00:58:27.080Z,0.00
2018-04-18T00:59:27.080Z,0.00
2018-04-18T01:00:27.053Z,0.00
2018-04-18T01:01:27.037Z,0.00
2018-04-18T01:02:27.022Z,0.00
2018-04-18T01:03:27.003Z,0.00
2018-04-18T01:04:26.981Z,0.00
2018-04-18T01:05:26.967Z,0.00
2018-04-18T01:06:26.949Z,0.00
2018-04-18T01:07:26.932Z,0.00
2018-04-18T01:08:26.921Z,0.00
2018-04-18T01:09:26.909Z,0.00
2018-04-18T01:10:26.880Z,0.00
2018-04-18T01:11:26.867Z,0.00
2018-04-18T01:12:26.849Z,0.00
2018-04-18T01:13:26.830Z,0.00
2018-04-18T01:14:26.815Z,0.00
2018-04-18T01:15:26.799Z,0.00
2018-04-18T01:16:26.779Z,0.00
2018-04-18T01:17:26.768Z,0.00
2018-04-18T01:18:26.751Z,0.00
2018-04-18T01:19:26.730Z,0.00
2018-04-18T01:20:26.715Z,0.00
2018-04-18T01:21:26.700Z,0.00
2018-04-18T01:22:26.680Z,0.00
2018-04-18T01:23:26.667Z,0.00
2018-04-18T01:24:26.654Z,0.00
2018-04-18T01:25:26.632Z,0.00
2018-04-18T01:26:26.619Z,0.00
2018-04-18T01:27:26.601Z,0.00
2018-04-18T01:28:26.588Z,0.00
2018-04-18T01:29:26.569Z,0.00
2018-04-18T01:30:26.547Z,0.00
2018-04-18T01:31:26.530Z,0.00
2018-04-18T01:32:26.524Z,0.00
2018-04-18T01:33:26.500Z,0.00
2018-04-18T01:34:26.482Z,0.00
2018-04-18T01:35:26.470Z,0.00
2018-04-18T01:36:26.450Z,0.00
2018-04-18T01:37:26.430Z,0.00
2018-04-18T01:38:26.413Z,0.00
2018-04-18T01:39:26.397Z,0.00
2018-04-18T01:40:26.379Z,0.00
2018-04-18T01:41:26.365Z,0.00
2018-04-18T01:42:26.349Z,0.00
2018-04-18T01:43:26.330Z,0.00
2018-04-18T01:44:26.313Z,0.00
2018-04-18T01:45:26.302Z,0.00
2018-04-18T01:46:26.283Z,0.00
2018-04-18T01:47:26.262Z,0.00
2018-04-18T01:48:26.246Z,0.00
2018-04-18T01:49:26.229Z,0.00
2018-04-18T01:50:26.215Z,0.00
2018-04-18T01:51:26.195Z,0.00
2018-04-18T01:52:26.185Z,0.00
2018-04-18T01:53:26.159Z,0.00
2018-04-18T01:54:26.147Z,0.00
2018-04-18T01:55:26.132Z,0.00
2018-04-18T01:56:26.148Z,0.00
2018-04-18T01:57:26.094Z,0.00
2018-04-18T01:58:26.077Z,0.00
2018-04-18T01:59:26.066Z,0.00
2018-04-18T02:00:26.054Z,0.00
2018-04-18T02:01:26.030Z,0.00
2018-04-18T02:02:26.019Z,0.00
2018-04-18T02:03:25.995Z,0.00
2018-04-18T02:04:25.978Z,0.00
2018-04-18T02:05:25.959Z,0.00
2018-04-18T02:06:25.946Z,0.00
2018-04-18T02:07:25.934Z,0.00
2018-04-18T02:08:25.908Z,0.00
2018-04-18T02:09:25.893Z,0.00
2018-04-18T02:10:25.876Z,0.00
2018-04-18T02:11:25.860Z,0.00
2018-04-18T02:12:25.843Z,0.00
2018-04-18T02:13:25.826Z,0.00
2018-04-18T02:14:25.807Z,0.00
2018-04-18T02:15:25.792Z,0.00
2018-04-18T02:16:25.779Z,0.00
2018-04-18T02:17:25.758Z,0.00
2018-04-18T02:18:25.740Z,0.00
2018-04-18T02:19:25.729Z,0.00
2018-04-18T02:20:25.709Z,0.00
2018-04-18T02:21:25.687Z,0.00
2018-04-18T02:22:25.671Z,0.00
2018-04-18T02:23:25.654Z,0.00
2018-04-18T02:24:25.640Z,0.00
2018-04-18T02:25:25.622Z,0.00
2018-04-18T02:26:25.607Z,0.00
2018-04-18T02:27:25.590Z,0.00
2018-04-18T02:28:25.570Z,0.00
2018-04-18T02:29:25.557Z,0.00
2018-04-18T02:30:25.536Z,0.00
2018-04-18T02:31:25.519Z,0.00
2018-04-18T02:32:25.500Z,0.00
2018-04-18T02:33:25.489Z,0.00
2018-04-18T02:34:25.466Z,0.00
2018-04-18T02:35:25.452Z,0.00
2018-04-18T02:36:25.435Z,0.00
2018-04-18T02:37:25.422Z,0.00
2018-04-18T02:38:25.400Z,0.00
2018-04-18T02:39:25.385Z,0.00
2018-04-18T02:40:25.366Z,0.00
2018-04-18T02:41:25.347Z,0.00
2018-04-18T02:42:25.331Z,0.00
2018-04-18T02:43:25.316Z,0.00
2018-04-18T02:44:25.341Z,0.00
2018-04-18T02:45:25.277Z,0.00
2018-04-18T02:46:25.267Z,0.00
2018-04-18T02:47:25.242Z,0.00
2018-04-18T02:48:25.225Z,0.00
2018-04-18T02:49:25.210Z,0.00
2018-04-18T02:50:25.195Z,0.00
2018-04-18T02:51:25.179Z,0.00
2018-04-18T02:52:25.164Z,0.00
2018-04-18T02:53:25.148Z,0.00
2018-04-18T02:54:25.125Z,0.00
2018-04-18T02:55:25.116Z,0.00
2018-04-18T02:56:25.092Z,0.00
2018-04-18T02:57:25.077Z,0.00
2018-04-18T02:58:25.061Z,0.00
2018-04-18T02:59:25.038Z,0.00
2018-04-18T03:00:25.026Z,0.00
2018-04-18T03:01:25.007Z,0.00
2018-04-18T03:02:24.991Z,0.00
2018-04-18T03:03:24.980Z,0.00
2018-04-18T03:04:24.955Z,0.00
2018-04-18T03:05:24.938Z,0.00
2018-04-18T03:06:24.928Z,0.00
2018-04-18T03:07:24.903Z,0.00
2018-04-18T03:08:24.884Z,0.00
2018-04-18T03:09:24.866Z,0.00
2018-04-18T03:10:24.851Z,0.00
2018-04-18T03:11:24.834Z,0.00
2018-04-18T03:12:24.821Z,0.00
2018-04-18T03:13:24.800Z,0.00
2018-04-18T03:14:24.785Z,0.00
2018-04-18T03:15:24.765Z,0.00
2018-04-18T03:16:24.746Z,0.00
2018-04-18T03:17:24.781Z,0.00
2018-04-18T03:18:24.714Z,0.00
2018-04-18T03:19:24.697Z,0.00
2018-04-18T03:20:24.681Z,0.00
2018-04-18T03:21:24.667Z,0.00
2018-04-18T03:22:24.646Z,0.00
2018-04-18T03:23:24.629Z,0.00
2018-04-18T03:24:24.612Z,0.00
2018-04-18T03:25:24.595Z,0.00
2018-04-18T03:26:24.581Z,0.00
2018-04-18T03:27:24.557Z,0.00
2018-04-18T03:28:24.542Z,0.00
2018-04-18T03:29:24.529Z,0.00
2018-04-18T03:30:24.512Z,0.00
2018-04-18T03:31:24.494Z,0.00
2018-04-18T03:32:24.477Z,0.00
2018-04-18T03:33:24.457Z,0.00
2018-04-18T03:34:24.439Z,0.00
2018-04-18T03:35:24.426Z,0.00
2018-04-18T03:36:24.404Z,0.00
2018-04-18T03:37:24.388Z,0.00
2018-04-18T03:38:24.369Z,0.00
2018-04-18T03:39:24.352Z,0.00
2018-04-18T03:40:24.337Z,0.00
2018-04-18T03:41:24.319Z,0.00
2018-04-18T03:42:24.298Z,0.00
2018-04-18T03:43:24.280Z,0.00
2018-04-18T03:44:24.265Z,0.00
2018-04-18T03:45:24.252Z,0.00
2018-04-18T03:46:24.237Z,0.00
2018-04-18T03:47:24.246Z,0.00
2018-04-18T03:48:24.198Z,0.00
2018-04-18T03:49:24.177Z,0.00
2018-04-18T03:50:24.161Z,0.00
2018-04-18T03:51:24.147Z,0.00
2018-04-18T03:52:24.135Z,0.00
2018-04-18T03:53:24.114Z,0.00
2018-04-18T03:54:24.096Z,0.00
2018-04-18T03:55:24.077Z,0.00
2018-04-18T03:56:24.058Z,0.00
2018-04-18T03:57:24.045Z,0.00
2018-04-18T03:58:24.029Z,0.00
2018-04-18T03:59:24.008Z,0.00
2018-04-18T04:00:23.988Z,0.00
2018-04-18T04:01:23.972Z,0.00
2018-04-18T04:02:23.957Z,0.00
2018-04-18T04:03:23.936Z,0.00
2018-04-18T04:04:23.918Z,0.00
2018-04-18T04:05:23.903Z,0.00
2018-04-18T04:06:23.883Z,4.00
2018-04-18T04:07:23.913Z,0.00
2018-04-18T04:08:23.848Z,0.00
2018-04-18T04:09:23.830Z,0.00
2018-04-18T04:10:23.826Z,4.00
2018-04-18T04:11:23.800Z,4.00
2018-04-18T04:12:23.786Z,0.00
2018-04-18T04:13:23.770Z,4.00
2018-04-18T04:14:23.747Z,0.00
2018-04-18T04:15:23.727Z,4.00
2018-04-18T04:16:23.709Z,0.00
2018-04-18T04:17:23.695Z,4.00
2018-04-18T04:18:23.672Z,4.00
2018-04-18T04:19:23.666Z,8.00
2018-04-18T04:20:23.640Z,8.00
2018-04-18T04:21:23.622Z,8.00
2018-04-18T04:22:23.614Z,8.00
2018-04-18T04:23:23.593Z,8.00
2018-04-18T04:24:23.574Z,8.00
2018-04-18T04:25:23.558Z,12.00
2018-04-18T04:26:23.538Z,12.00
2018-04-18T04:27:23.520Z,12.00
2018-04-18T04:28:23.502Z,16.00
2018-04-18T04:29:23.488Z,16.00
2018-04-18T04:30:23.471Z,20.00
2018-04-18T04:31:23.701Z,20.00
2018-04-18T04:32:23.434Z,20.00
2018-04-18T04:33:23.418Z,24.00
2018-04-18T04:34:23.403Z,24.00
2018-04-18T04:35:23.380Z,24.00
2018-04-18T04:36:23.367Z,28.00
2018-04-18T04:37:23.348Z,28.00
2018-04-18T04:38:23.335Z,32.00
2018-04-18T04:39:23.316Z,32.00
2018-04-18T04:40:23.303Z,36.00
2018-04-18T04:41:23.280Z,36.00
2018-04-18T04:42:23.259Z,40.00
2018-04-18T04:43:23.251Z,44.00
2018-04-18T04:44:23.226Z,44.00
2018-04-18T04:45:23.213Z,48.00
2018-04-18T04:46:23.202Z,48.00
2018-04-18T04:47:23.177Z,52.00
2018-04-18T04:48:23.159Z,56.00
2018-04-18T04:49:23.137Z,56.00
2018-04-18T04:50:23.119Z,60.00
2018-04-18T04:51:23.106Z,64.00
2018-04-18T04:52:23.082Z,64.00
2018-04-18T04:53:23.066Z,64.00
2018-04-18T04:54:23.049Z,72.00
2018-04-18T04:55:23.034Z,72.00
2018-04-18T04:56:23.070Z,72.00
2018-04-18T04:57:23.003Z,80.00
2018-04-18T04:58:22.983Z,80.00
2018-04-18T04:59:22.963Z,80.00
2018-04-18T05:00:22.956Z,88.00
2018-04-18T05:01:23.182Z,88.00
2018-04-18T05:02:22.908Z,92.00
2018-04-18T05:03:22.893Z,92.00
2018-04-18T05:04:22.877Z,96.00
2018-04-18T05:05:22.859Z,96.00
2018-04-18T05:06:22.841Z,100.00
2018-04-18T05:07:22.820Z,104.00
2018-04-18T05:08:22.806Z,108.00
2018-04-18T05:09:22.786Z,112.00
2018-04-18T05:10:22.788Z,112.00
2018-04-18T05:11:22.762Z,112.00
2018-04-18T05:12:22.740Z,112.00
2018-04-18T05:13:22.717Z,120.00
2018-04-18T05:14:22.699Z,120.00
2018-04-18T05:15:22.688Z,120.00
2018-04-18T05:16:22.663Z,128.00
2018-04-18T05:17:22.651Z,128.00
2018-04-18T05:18:22.629Z,132.00
2018-04-18T05:19:22.617Z,132.00
2018-04-18T05:20:22.602Z,136.00
2018-04-18T05:21:22.583Z,140.00
2018-04-18T05:22:22.559Z,144.00
2018-04-18T05:23:22.544Z,140.00
2018-04-18T05:24:22.538Z,144.00
2018-04-18T05:25:22.508Z,148.00
2018-04-18T05:26:22.489Z,152.00
2018-04-18T05:27:22.475Z,156.00
2018-04-18T05:28:22.459Z,156.00
2018-04-18T05:29:22.438Z,156.00
2018-04-18T05:30:22.427Z,164.00
2018-04-18T05:31:22.404Z,164.00
2018-04-18T05:32:22.388Z,168.00
2018-04-18T05:33:22.373Z,172.00
2018-04-18T05:34:22.355Z,172.00
2018-04-18T05:35:22.340Z,176.00
2018-04-18T05:36:22.317Z,180.00
2018-04-18T05:37:22.324Z,180.00
2018-04-18T05:38:22.285Z,184.00
2018-04-18T05:39:22.272Z,184.00
2018-04-18T05:40:22.247Z,188.00
2018-04-18T05:41:22.230Z,192.00
2018-04-18T05:42:22.217Z,196.00
2018-04-18T05:43:22.202Z,196.00
2018-04-18T05:44:22.180Z,200.00
2018-04-18T05:45:22.160Z,200.00
2018-04-18T05:46:22.142Z,204.00
2018-04-18T05:47:22.128Z,208.00
2018-04-18T05:48:22.110Z,208.00
2018-04-18T05:49:22.089Z,212.00
2018-04-18T05:50:22.081Z,212.00
2018-04-18T05:51:22.057Z,216.00
2018-04-18T05:52:22.040Z,220.00
2018-04-18T05:53:22.039Z,220.00
2018-04-18T05:54:22.009Z,220.00
2018-04-18T05:55:22.027Z,224.00
2018-04-18T05:56:21.972Z,224.00
2018-04-18T05:57:21.953Z,228.00
2018-04-18T05:58:21.937Z,232.00
2018-04-18T05:59:21.922Z,236.00
2018-04-18T06:00:21.902Z,240.00
2018-04-18T06:01:21.883Z,244.00
2018-04-18T06:02:21.867Z,240.00
2018-04-18T06:03:21.850Z,244.00
2018-04-18T06:04:21.839Z,248.00
2018-04-18T06:05:21.823Z,248.00
2018-04-18T06:06:21.797Z,252.00
2018-04-18T06:07:21.783Z,256.00
2018-04-18T06:08:21.759Z,260.00
2018-04-18T06:09:21.751Z,260.00
2018-04-18T06:10:21.730Z,264.00
2018-04-18T06:11:21.713Z,264.00
2018-04-18T06:12:21.698Z,264.00
2018-04-18T06:13:21.679Z,268.00
2018-04-18T06:14:21.663Z,268.00
2018-04-18T06:15:21.646Z,272.00
2018-04-18T06:16:21.628Z,276.00
2018-04-18T06:17:21.607Z,276.00
2018-04-18T06:18:21.590Z,280.00
2018-04-18T06:19:21.582Z,284.00
2018-04-18T06:20:21.560Z,284.00
2018-04-18T06:21:21.539Z,288.00
2018-04-18T06:22:21.528Z,288.00
2018-04-18T06:23:21.508Z,292.00
2018-04-18T06:24:21.488Z,292.00
2018-04-18T06:25:21.473Z,296.00
2018-04-18T06:26:21.456Z,300.00
2018-04-18T06:27:21.476Z,296.00
2018-04-18T06:28:21.419Z,304.00
2018-04-18T06:29:21.405Z,304.00
2018-04-18T06:30:21.389Z,304.00
2018-04-18T06:31:21.372Z,308.00
2018-04-18T06:32:21.352Z,312.00
2018-04-18T06:33:21.336Z,316.00
2018-04-18T06:34:21.319Z,320.00
2018-04-18T06:35:21.298Z,324.00
2018-04-18T06:36:21.287Z,328.00
2018-04-18T06:37:21.271Z,332.00
2018-04-18T06:38:21.248Z,340.00
2018-04-18T06:39:21.236Z,344.00
2018-04-18T06:40:21.216Z,348.00
2018-04-18T06:41:21.200Z,356.00
2018-04-18T06:42:21.186Z,360.00
2018-04-18T06:43:21.165Z,368.00
2018-04-18T06:44:21.150Z,376.00
2018-04-18T06:45:21.132Z,384.00
2018-04-18T06:46:21.118Z,396.00
2018-04-18T06:47:21.096Z,404.00
2018-04-18T06:48:21.079Z,412.00
2018-04-18T06:49:21.063Z,420.00
2018-04-18T06:50:21.045Z,428.00
2018-04-18T06:51:21.060Z,440.00
2018-04-18T06:52:21.013Z,448.00
2018-04-18T06:53:21.007Z,456.00
2018-04-18T06:54:20.980Z,464.00
2018-04-18T06:55:20.969Z,476.00
2018-04-18T06:56:20.949Z,480.00
2018-04-18T06:57:20.929Z,488.00
2018-04-18T06:58:20.914Z,500.00
2018-04-18T06:59:20.896Z,508.00
2018-04-18T07:00:20.880Z,524.00
2018-04-18T07:01:20.865Z,532.00
2018-04-18T07:02:20.850Z,544.00
2018-04-18T07:03:20.863Z,556.00
2018-04-18T07:04:20.820Z,568.00
2018-04-18T07:05:20.801Z,580.00
2018-04-18T07:06:20.781Z,592.00
2018-04-18T07:07:20.769Z,608.00
2018-04-18T07:08:20.749Z,620.00
2018-04-18T07:09:20.731Z,636.00
2018-04-18T07:10:20.718Z,652.00
2018-04-18T07:11:20.700Z,668.00
2018-04-18T07:12:20.685Z,680.00
2018-04-18T07:13:20.666Z,700.00
2018-04-18T07:14:20.655Z,716.00
2018-04-18T07:15:20.638Z,728.00
2018-04-18T07:16:20.618Z,740.00
2018-04-18T07:17:20.603Z,752.00
2018-04-18T07:18:20.591Z,768.00
2018-04-18T07:19:20.577Z,788.00
2018-04-18T07:20:20.557Z,804.00
2018-04-18T07:21:20.554Z,832.00
2018-04-18T07:22:20.517Z,856.00
2018-04-18T07:23:20.505Z,880.00
2018-04-18T07:24:20.489Z,912.00
2018-04-18T07:25:20.471Z,944.00
2018-04-18T07:26:20.451Z,968.00
2018-04-18T07:27:20.439Z,992.00
2018-04-18T07:28:20.420Z,1028.00
2018-04-18T07:29:20.418Z,1056.00
2018-04-18T07:30:20.394Z,1080.00
2018-04-18T07:31:20.372Z,1104.00
2018-04-18T07:32:20.379Z,1124.00
2018-04-18T07:33:20.340Z,1156.00
2018-04-18T07:34:20.368Z,1160.00
2018-04-18T07:35:20.307Z,1176.00
2018-04-18T07:36:20.291Z,1188.00
2018-04-18T07:37:20.275Z,1188.00
2018-04-18T07:38:20.258Z,1208.00
2018-04-18T07:39:20.248Z,1224.00
2018-04-18T07:40:20.228Z,1248.00
2018-04-18T07:41:20.215Z,1264.00
2018-04-18T07:42:20.196Z,1284.00
2018-04-18T07:43:20.180Z,1300.00
2018-04-18T07:44:20.167Z,1316.00
2018-04-18T07:45:20.154Z,1336.00
2018-04-18T07:46:20.134Z,1352.00
2018-04-18T07:47:20.118Z,1368.00
2018-04-18T07:48:20.100Z,1384.00
2018-04-18T07:49:20.091Z,1408.00
2018-04-18T07:50:20.074Z,1432.00
2018-04-18T07:51:20.058Z,1448.00
2018-04-18T07:52:20.041Z,1472.00
2018-04-18T07:53:20.023Z,1480.00
2018-04-18T07:54:20.009Z,1480.00
2018-04-18T07:55:19.996Z,1492.00
2018-04-18T07:56:19.978Z,1524.00
2018-04-18T07:57:19.962Z,1544.00
2018-04-18T07:58:19.950Z,1572.00
2018-04-18T07:59:19.930Z,1588.00
2018-04-18T08:00:19.916Z,1612.00
2018-04-18T08:01:19.907Z,1632.00
2018-04-18T08:02:19.884Z,1644.00
2018-04-18T08:03:19.874Z,1672.00
2018-04-18T08:04:19.858Z,1692.00
2018-04-18T08:05:19.841Z,1716.00
2018-04-18T08:06:19.823Z,1724.00
2018-04-18T08:07:19.810Z,1744.00
2018-04-18T08:08:19.791Z,1756.00
2018-04-18T08:09:19.780Z,1752.00
2018-04-18T08:10:19.761Z,1788.00
2018-04-18T08:11:19.746Z,1808.00
2018-04-18T08:12:19.731Z,1804.00
2018-04-18T08:13:19.718Z,1820.00
2018-04-18T08:14:19.702Z,1856.00
2018-04-18T08:15:19.823Z,1880.00
2018-04-18T08:16:19.673Z,1868.00
2018-04-18T08:17:19.662Z,1900.00
2018-04-18T08:18:19.643Z,1924.00
2018-04-18T08:19:19.630Z,1940.00
2018-04-18T08:20:19.626Z,1964.00
2018-04-18T08:21:19.606Z,1988.00
2018-04-18T08:22:19.584Z,2004.00
2018-04-18T08:23:19.566Z,2008.00
2018-04-18T08:24:19.553Z,2040.00
2018-04-18T08:25:19.537Z,2048.00
2018-04-18T08:26:19.532Z,2008.00
2018-04-18T08:27:19.510Z,2032.00
2018-04-18T08:28:19.499Z,2048.00
2018-04-18T08:29:19.480Z,2064.00
2018-04-18T08:30:19.464Z,2104.00
2018-04-18T08:31:19.454Z,2116.00
2018-04-18T08:32:19.441Z,2128.00
2018-04-18T08:33:19.428Z,2140.00
2018-04-18T08:34:19.416Z,2144.00
2018-04-18T08:35:19.400Z,2148.00
2018-04-18T08:36:19.381Z,2144.00
2018-04-18T08:37:19.367Z,2144.00
2018-04-18T08:38:19.353Z,2132.00
2018-04-18T08:39:19.341Z,2176.00
2018-04-18T08:40:19.326Z,2196.00
2018-04-18T08:41:19.312Z,2200.00
2018-04-18T08:42:19.295Z,2180.00
2018-04-18T08:43:19.288Z,2172.00
2018-04-18T08:44:19.264Z,2096.00
2018-04-18T08:45:19.256Z,2176.00
2018-04-18T08:46:19.242Z,2152.00
2018-04-18T08:47:19.228Z,2128.00
2018-04-18T08:48:19.209Z,2188.00
2018-04-18T08:49:19.197Z,2104.00
2018-04-18T08:50:19.192Z,2132.00
2018-04-18T08:51:19.171Z,2136.00
2018-04-18T08:52:19.155Z,2192.00
2018-04-18T08:53:19.140Z,2132.00
2018-04-18T08:54:19.130Z,2276.00
2018-04-18T08:55:19.114Z,2292.00
2018-04-18T08:56:19.100Z,2292.00
2018-04-18T08:57:19.086Z,2240.00
2018-04-18T08:58:19.074Z,2244.00
2018-04-18T08:59:19.060Z,2244.00
2018-04-18T09:00:19.047Z,2284.00
2018-04-18T09:01:19.039Z,2056.00
2018-04-18T09:02:19.015Z,2284.00
2018-04-18T09:03:19.009Z,2236.00
2018-04-18T09:04:18.988Z,2152.00
2018-04-18T09:05:18.975Z,2228.00
2018-04-18T09:06:18.970Z,2212.00
2018-04-18T09:07:18.949Z,2280.00
2018-04-18T09:08:18.936Z,2272.00
2018-04-18T09:09:18.922Z,2232.00
2018-04-18T09:10:18.908Z,2212.00
2018-04-18T09:11:18.892Z,2224.00
2018-04-18T09:12:18.883Z,2232.00
2018-04-18T09:13:18.868Z,2136.00
2018-04-18T09:14:18.854Z,2076.00
2018-04-18T09:15:18.840Z,2140.00
2018-04-18T09:16:18.830Z,2200.00
2018-04-18T09:17:18.809Z,2200.00
2018-04-18T09:18:18.803Z,2276.00
2018-04-18T09:19:18.787Z,2340.00
2018-04-18T09:20:18.774Z,2336.00
2018-04-18T09:21:18.756Z,2340.00
2018-04-18T09:22:18.748Z,2320.00
2018-04-18T09:23:18.728Z,2296.00
2018-04-18T09:24:18.716Z,2304.00
2018-04-18T09:25:18.706Z,2332.00
2018-04-18T09:26:18.690Z,2340.00
2018-04-18T09:27:18.679Z,2332.00
2018-04-18T09:28:18.665Z,2348.00
2018-04-18T09:29:18.653Z,2356.00
2018-04-18T09:30:18.644Z,2408.00
2018-04-18T09:31:18.625Z,2396.00
2018-04-18T09:32:18.609Z,2340.00
2018-04-18T09:33:18.597Z,2280.00
2018-04-18T09:34:18.590Z,2328.00
2018-04-18T09:35:18.575Z,2388.00
2018-04-18T09:36:18.560Z,2372.00
2018-04-18T09:37:18.554Z,2380.00
2018-04-18T09:38:18.532Z,2384.00
2018-04-18T09:39:18.524Z,2376.00
2018-04-18T09:40:18.506Z,2384.00
2018-04-18T09:41:18.497Z,2416.00
2018-04-18T09:42:18.478Z,2384.00
2018-04-18T09:43:18.470Z,2376.00
2018-04-18T09:44:18.468Z,2380.00
2018-04-18T09:45:18.438Z,2384.00
2018-04-18T09:46:18.475Z,2416.00
2018-04-18T09:47:18.424Z,2404.00
2018-04-18T09:48:18.409Z,2396.00
2018-04-18T09:49:18.402Z,2396.00
2018-04-18T09:50:18.380Z,2396.00
2018-04-18T09:51:18.376Z,2404.00
2018-04-18T09:52:18.360Z,2392.00
2018-04-18T09:53:18.348Z,2372.00
2018-04-18T09:54:18.332Z,2388.00
2018-04-18T09:55:18.320Z,2368.00
2018-04-18T09:56:18.303Z,2372.00
2018-04-18T09:57:18.294Z,2352.00
2018-04-18T09:58:18.306Z,2316.00
2018-04-18T09:59:18.279Z,2316.00
2018-04-18T10:00:18.253Z,2340.00
2018-04-18T10:01:18.242Z,2324.00
2018-04-18T10:02:18.234Z,2312.00
2018-04-18T10:03:18.215Z,2320.00
2018-04-18T10:04:18.198Z,2304.00
2018-04-18T10:05:18.189Z,2316.00
2018-04-18T10:06:18.181Z,2300.00
2018-04-18T10:07:18.167Z,2312.00
2018-04-18T10:08:18.150Z,2352.00
2018-04-18T10:09:18.143Z,2368.00
2018-04-18T10:10:18.156Z,2380.00
2018-04-18T10:11:18.117Z,2436.00
2018-04-18T10:12:18.100Z,2412.00
2018-04-18T10:13:18.090Z,2444.00
2018-04-18T10:14:18.081Z,2320.00
2018-04-18T10:15:18.111Z,2320.00
2018-04-18T10:16:18.065Z,2284.00
2018-04-18T10:17:18.040Z,2276.00
2018-04-18T10:18:18.034Z,2300.00
2018-04-18T10:19:18.021Z,2260.00
2018-04-18T10:20:18.001Z,2188.00
2018-04-18T10:21:17.989Z,2156.00
2018-04-18T10:22:17.978Z,2108.00
2018-04-18T10:23:17.987Z,2128.00
2018-04-18T10:24:17.960Z,2136.00
2018-04-18T10:25:17.949Z,2156.00
2018-04-18T10:26:17.928Z,2204.00
2018-04-18T10:27:17.919Z,2256.00
2018-04-18T10:28:17.910Z,2264.00
2018-04-18T10:29:17.893Z,2244.00
2018-04-18T10:30:17.880Z,2236.00
2018-04-18T10:31:17.872Z,2240.00
2018-04-18T10:32:17.860Z,2216.00
2018-04-18T10:33:17.845Z,2224.00
2018-04-18T10:34:17.833Z,2192.00
2018-04-18T10:35:17.819Z,2192.00
2018-04-18T10:36:17.809Z,2228.00
2018-04-18T10:37:17.801Z,2184.00
2018-04-18T10:38:17.785Z,2168.00
2018-04-18T10:39:17.770Z,2188.00
2018-04-18T10:40:17.758Z,2180.00
2018-04-18T10:41:17.753Z,2196.00
2018-04-18T10:42:17.734Z,2240.00
2018-04-18T10:43:17.750Z,2256.00
2018-04-18T10:44:17.712Z,2260.00
2018-04-18T10:45:17.697Z,2132.00
2018-04-18T10:46:17.686Z,2144.00
2018-04-18T10:47:17.683Z,2252.00
2018-04-18T10:48:17.664Z,2308.00
2018-04-18T10:49:17.651Z,2308.00
2018-04-18T10:50:17.650Z,2252.00
2018-04-18T10:51:17.630Z,2268.00
2018-04-18T10:52:17.613Z,2288.00
2018-04-18T10:53:17.601Z,2232.00
2018-04-18T10:54:17.594Z,2196.00
2018-04-18T10:55:17.583Z,2244.00
2018-04-18T10:56:17.568Z,2256.00
2018-04-18T10:57:17.558Z,2236.00
2018-04-18T10:58:17.548Z,2296.00
2018-04-18T10:59:17.532Z,2276.00
2018-04-18T11:00:17.530Z,2284.00
2018-04-18T11:01:17.512Z,2312.00
2018-04-18T11:02:17.498Z,2344.00
2018-04-18T11:03:17.487Z,2336.00
2018-04-18T11:04:17.479Z,2332.00
2018-04-18T11:05:17.473Z,2320.00
2018-04-18T11:06:17.452Z,2332.00
2018-04-18T11:07:17.436Z,2316.00
2018-04-18T11:08:17.430Z,2324.00
2018-04-18T11:09:17.414Z,2344.00
2018-04-18T11:10:17.408Z,2332.00
2018-04-18T11:11:17.393Z,2372.00
2018-04-18T11:12:17.385Z,2396.00
2018-04-18T11:13:17.393Z,2384.00
2018-04-18T11:14:17.362Z,2320.00
2018-04-18T11:15:17.339Z,2284.00
2018-04-18T11:16:17.329Z,2300.00
2018-04-18T11:17:17.322Z,2312.00
2018-04-18T11:18:17.310Z,2316.00
2018-04-18T11:19:17.297Z,2296.00
2018-04-18T11:20:17.286Z,2288.00
2018-04-18T11:21:17.271Z,2280.00
2018-04-18T11:22:17.259Z,2292.00
2018-04-18T11:23:17.253Z,2268.00
2018-04-18T11:24:17.238Z,2308.00
2018-04-18T11:25:17.220Z,2296.00
2018-04-18T11:26:17.214Z,2260.00
2018-04-18T11:27:17.200Z,2276.00
2018-04-18T11:28:17.187Z,2272.00
2018-04-18T11:29:17.181Z,2312.00
2018-04-18T11:30:17.168Z,2364.00
2018-04-18T11:31:17.156Z,2388.00
2018-04-18T11:32:17.139Z,2400.00
2018-04-18T11:33:17.132Z,2428.00
2018-04-18T11:34:17.124Z,2372.00
2018-04-18T11:35:17.109Z,2404.00
2018-04-18T11:36:17.100Z,2428.00
2018-04-18T11:37:17.085Z,2440.00
2018-04-18T11:38:17.069Z,2420.00
2018-04-18T11:39:17.066Z,2344.00
2018-04-18T11:40:17.055Z,2308.00
2018-04-18T11:41:17.043Z,2316.00
2018-04-18T11:42:17.034Z,2364.00
2018-04-18T11:43:17.018Z,2364.00
2018-04-18T11:44:17.001Z,2344.00
2018-04-18T11:45:16.997Z,2304.00
2018-04-18T11:46:16.979Z,2292.00
2018-04-18T11:47:16.973Z,2324.00
2018-04-18T11:48:16.962Z,2244.00
2018-04-18T11:49:16.962Z,2372.00
2018-04-18T11:50:16.938Z,2320.00
2018-04-18T11:51:16.922Z,2344.00
2018-04-18T11:52:16.913Z,2368.00
2018-04-18T11:53:16.901Z,2364.00
2018-04-18T11:54:16.893Z,2464.00
2018-04-18T11:55:16.878Z,2448.00
2018-04-18T11:56:16.867Z,2448.00
2018-04-18T11:57:16.855Z,2372.00
2018-04-18T11:58:16.841Z,2332.00
2018-04-18T11:59:16.843Z,2264.00
2018-04-18T12:00:16.825Z,2240.00
2018-04-18T12:01:16.812Z,2244.00
2018-04-18T12:02:16.825Z,2312.00
2018-04-18T12:03:16.785Z,2288.00
2018-04-18T12:04:16.780Z,2288.00
2018-04-18T12:05:16.762Z,2288.00
2018-04-18T12:06:16.757Z,2328.00
2018-04-18T12:07:16.741Z,2360.00
2018-04-18T12:08:16.725Z,2360.00
2018-04-18T12:09:16.718Z,2312.00
2018-04-18T12:10:16.709Z,2340.00
2018-04-18T12:11:16.693Z,2388.00
2018-04-18T12:12:16.680Z,2392.00
2018-04-18T12:13:16.670Z,2388.00
2018-04-18T12:14:16.670Z,2372.00
2018-04-18T12:15:16.651Z,2372.00
2018-04-18T12:16:16.651Z,2420.00
2018-04-18T12:17:16.633Z,2476.00
2018-04-18T12:18:16.618Z,2416.00
2018-04-18T12:19:16.609Z,2396.00
2018-04-18T12:20:16.592Z,2436.00
2018-04-18T12:21:16.577Z,2408.00
2018-04-18T12:22:16.569Z,2308.00
2018-04-18T12:23:16.560Z,2280.00
2018-04-18T12:24:16.549Z,2268.00
2018-04-18T12:25:16.535Z,2252.00
2018-04-18T12:26:16.533Z,2188.00
2018-04-18T12:27:16.510Z,2256.00
2018-04-18T12:28:16.501Z,2272.00
2018-04-18T12:29:16.493Z,2248.00
2018-04-18T12:30:16.481Z,2312.00
2018-04-18T12:31:16.474Z,2352.00
2018-04-18T12:32:16.457Z,2388.00
2018-04-18T12:33:16.454Z,2416.00
2018-04-18T12:34:16.437Z,2428.00
2018-04-18T12:35:16.423Z,2412.00
2018-04-18T12:36:16.411Z,2424.00